createdAt,value
2022-10-11T00:02:04.972Z,74.58
2022-10-11T00:05:09.186Z,75.04
2022-10-11T00:08:12.406Z,75.13
2022-10-11T00:11:15.248Z,75.37
2022-10-11T00:14:17.717Z,75.71
2022-10-11T00:17:20.481Z,75.71
2022-10-11T00:20:23.162Z,76.12
2022-10-11T00:23:25.925Z,76.14
2022-10-11T00:26:28.524Z,76.52
2022-10-11T00:29:31.388Z,76.58
2022-10-11T00:32:34.818Z,76.44
2022-10-11T00:35:41.487Z,76.45
2022-10-11T00:38:44.689Z,76.43
2022-10-11T00:41:49.235Z,76.60
2022-10-11T00:44:52.320Z,76.65
2022-10-11T00:47:56.639Z,76.59
2022-10-11T00:51:01.539Z,76.62
2022-10-11T00:54:06.101Z,76.92
2022-10-11T00:57:12.699Z,78.22
2022-10-11T01:00:16.429Z,77.57
2022-10-11T01:03:20.690Z,78.69
2022-10-11T01:06:23.582Z,78.22
2022-10-11T01:09:26.414Z,77.75
2022-10-11T01:12:31.041Z,78.11
2022-10-11T01:15:46.215Z,77.95
2022-10-11T01:19:12.734Z,77.72
2022-10-11T01:22:27.573Z,77.74
2022-10-11T01:25:33.390Z,78.25
2022-10-11T01:28:42.167Z,77.97
2022-10-11T01:31:59.353Z,77.94
2022-10-11T01:35:08.597Z,77.99
2022-10-11T01:38:33.245Z,78.14
2022-10-11T01:41:39.484Z,78.02
2022-10-11T01:44:43.193Z,78.36
2022-10-11T01:47:45.991Z,78.58
2022-10-11T01:50:52.017Z,78.61
2022-10-11T01:53:54.463Z,78.39
2022-10-11T01:57:03.489Z,78.31
2022-10-11T02:00:20.865Z,78.08
2022-10-11T02:03:34.317Z,78.21
2022-10-11T02:06:56.349Z,78.30
2022-10-11T02:10:17.886Z,78.21
2022-10-11T02:13:27.962Z,78.58
2022-10-11T02:16:39.240Z,78.50
2022-10-11T02:19:45.167Z,78.40
2022-10-11T02:22:50.555Z,78.76
2022-10-11T02:25:54.286Z,78.78
2022-10-11T02:29:01.198Z,78.89
2022-10-11T02:32:04.032Z,79.29
2022-10-11T02:35:07.472Z,79.53
2022-10-11T02:38:32.332Z,79.72
2022-10-11T02:41:40.351Z,80.61
2022-10-11T02:44:53.605Z,80.36
2022-10-11T02:47:57.447Z,80.44
2022-10-11T02:51:00.087Z,80.69
2022-10-11T02:54:02.932Z,80.82
2022-10-11T02:57:05.471Z,80.93
2022-10-11T03:00:10.601Z,80.41
2022-10-11T03:03:13.312Z,80.08
2022-10-11T03:06:16.336Z,80.01
2022-10-11T03:09:19.395Z,79.80
2022-10-11T03:12:22.170Z,79.97
2022-10-11T03:15:24.598Z,80.00
2022-10-11T03:18:28.379Z,79.92
2022-10-11T03:21:31.090Z,79.96
2022-10-11T03:24:33.895Z,79.63
2022-10-11T03:27:36.357Z,79.77
2022-10-11T03:30:39.177Z,79.77
2022-10-11T03:33:41.646Z,80.11
2022-10-11T03:36:44.411Z,80.42
2022-10-11T03:39:46.972Z,80.64
2022-10-11T03:42:49.772Z,80.72
2022-10-11T03:45:52.267Z,80.92
2022-10-11T03:48:55.088Z,81.90
2022-10-11T03:51:57.719Z,81.53
2022-10-11T03:55:00.561Z,81.94
2022-10-11T03:58:03.103Z,81.71
2022-10-11T04:01:05.865Z,81.59
2022-10-11T04:04:08.826Z,81.86
2022-10-11T04:07:11.299Z,82.39
2022-10-11T04:10:14.501Z,83.17
2022-10-11T04:13:17.488Z,82.56
2022-10-11T04:16:20.280Z,82.99
2022-10-11T04:19:22.752Z,83.16
2022-10-11T04:22:25.565Z,82.81
2022-10-11T04:25:28.106Z,82.47
2022-10-11T04:28:31.332Z,82.66
2022-10-11T04:31:33.948Z,82.74
2022-10-11T04:34:36.711Z,82.81
2022-10-11T04:37:39.363Z,81.94
2022-10-11T04:40:42.184Z,81.62
2022-10-11T04:43:44.684Z,81.35
2022-10-11T04:46:47.459Z,81.62
2022-10-11T04:49:50.453Z,81.75
2022-10-11T04:52:53.248Z,81.83
2022-10-11T04:56:01.487Z,80.90
2022-10-11T04:59:04.517Z,80.98
2022-10-11T05:02:07.073Z,81.38
2022-10-11T05:05:09.998Z,80.86
2022-10-11T05:08:12.522Z,80.83
2022-10-11T05:11:16.935Z,81.11
2022-10-11T05:14:19.855Z,80.74
2022-10-11T05:17:22.615Z,80.80
2022-10-11T05:20:25.215Z,80.74
2022-10-11T05:23:29.378Z,80.68
2022-10-11T05:26:32.012Z,80.73
2022-10-11T05:29:34.770Z,81.17
2022-10-11T05:32:37.364Z,81.08
2022-10-11T05:35:40.274Z,80.86
2022-10-11T05:38:42.820Z,81.28
2022-10-11T05:41:45.756Z,81.37
2022-10-11T05:44:48.312Z,81.56
2022-10-11T05:47:51.262Z,81.48
2022-10-11T05:51:02.996Z,81.21
2022-10-11T05:54:05.791Z,81.32
2022-10-11T05:57:08.501Z,81.54
2022-10-11T06:00:11.759Z,81.63
2022-10-11T06:03:15.092Z,81.68
2022-10-11T06:06:18.375Z,81.80
2022-10-11T06:09:20.973Z,81.93
2022-10-11T06:12:23.716Z,81.84
2022-10-11T06:15:26.338Z,81.97
2022-10-11T06:18:29.250Z,81.66
2022-10-11T06:21:31.822Z,81.41
2022-10-11T06:24:34.584Z,81.31
2022-10-11T06:27:37.287Z,80.85
2022-10-11T06:30:40.083Z,80.96
2022-10-11T06:33:42.734Z,78.76
2022-10-11T06:36:45.507Z,77.69
2022-10-11T06:39:48.091Z,77.88
2022-10-11T06:42:50.841Z,77.91
2022-10-11T06:45:53.262Z,77.75
2022-10-11T06:48:56.684Z,76.46
2022-10-11T06:51:59.204Z,76.44
2022-10-11T06:55:01.928Z,75.74
2022-10-11T06:58:04.472Z,76.60
2022-10-11T07:01:10.901Z,77.22
2022-10-11T07:04:13.489Z,75.90
2022-10-11T07:07:16.265Z,75.74
2022-10-11T07:10:18.795Z,73.69
2022-10-11T07:13:21.596Z,73.17
2022-10-11T07:16:24.824Z,74.66
2022-10-11T07:19:27.748Z,74.89
2022-10-11T07:22:30.273Z,74.18
2022-10-11T07:25:33.159Z,73.98
2022-10-11T07:28:36.966Z,75.05
2022-10-11T07:31:41.845Z,74.30
2022-10-11T07:34:44.704Z,74.62
2022-10-11T07:37:47.474Z,74.15
2022-10-11T07:40:50.129Z,74.09
2022-10-11T07:43:54.538Z,74.66
2022-10-11T07:46:57.056Z,74.90
2022-10-11T07:49:59.971Z,74.33
2022-10-11T07:53:03.128Z,73.85
2022-10-11T07:56:06.734Z,72.61
2022-10-11T07:59:10.953Z,73.34
2022-10-11T08:02:13.963Z,73.46
2022-10-11T08:05:16.792Z,72.61
2022-10-11T08:08:19.537Z,72.31
2022-10-11T08:11:35.139Z,70.19
2022-10-11T08:14:37.646Z,71.08
2022-10-11T08:17:40.423Z,71.12
2022-10-11T08:20:43.064Z,70.40
2022-10-11T08:23:46.290Z,71.03
2022-10-11T08:26:48.745Z,70.36
2022-10-11T08:29:51.583Z,69.91
2022-10-11T08:32:54.119Z,69.12
2022-10-11T08:35:57.375Z,69.58
2022-10-11T08:39:00.981Z,67.99
2022-10-11T08:42:15.868Z,67.60
2022-10-11T08:45:32.000Z,66.57
2022-10-11T08:48:43.135Z,67.77
2022-10-11T08:51:48.482Z,66.11
2022-10-11T08:55:17.606Z,66.11
2022-10-11T08:58:56.263Z,65.52
2022-10-11T09:02:07.117Z,65.98
2022-10-11T09:05:14.721Z,64.80
2022-10-11T09:08:29.819Z,65.61
2022-10-11T09:11:57.442Z,63.81
2022-10-11T09:15:17.123Z,64.87
2022-10-11T09:18:36.691Z,63.65
2022-10-11T09:21:56.384Z,64.40
2022-10-11T09:25:09.707Z,64.10
2022-10-11T09:28:43.036Z,64.50
2022-10-11T09:31:52.671Z,64.02
2022-10-11T09:35:01.401Z,64.12
2022-10-11T09:38:22.177Z,64.18
2022-10-11T09:41:41.779Z,63.23
2022-10-11T09:44:51.790Z,63.54
2022-10-11T09:47:56.347Z,61.70
2022-10-11T09:51:04.004Z,61.15
2022-10-11T09:54:06.949Z,62.07
2022-10-11T09:57:23.287Z,59.69
2022-10-11T10:00:30.158Z,59.22
2022-10-11T10:03:36.951Z,58.95
2022-10-11T10:06:40.038Z,58.93
2022-10-11T10:09:42.840Z,59.30
2022-10-11T10:12:54.494Z,58.84
2022-10-11T10:16:01.251Z,58.59
2022-10-11T10:19:18.495Z,57.88
2022-10-11T10:22:22.033Z,57.87
2022-10-11T10:25:32.011Z,57.80
2022-10-11T10:28:35.840Z,58.38
2022-10-11T10:32:15.530Z,57.94
2022-10-11T10:35:30.659Z,56.80
2022-10-11T10:38:36.461Z,55.65
2022-10-11T10:41:39.291Z,56.56
2022-10-11T10:44:42.183Z,56.30
2022-10-11T10:48:13.618Z,56.21
2022-10-11T10:51:44.066Z,54.72
2022-10-11T10:54:55.792Z,55.41
2022-10-11T10:58:16.401Z,55.72
2022-10-11T11:01:27.214Z,55.36
2022-10-11T11:04:32.766Z,55.79
2022-10-11T11:07:47.376Z,54.87
2022-10-11T11:11:15.470Z,54.79
2022-10-11T11:14:49.990Z,54.64
2022-10-11T11:18:04.285Z,55.21
2022-10-11T11:21:41.537Z,54.97
2022-10-11T11:24:56.755Z,55.46
2022-10-11T11:28:27.451Z,55.65
2022-10-11T11:31:35.990Z,55.54
2022-10-11T11:34:43.940Z,55.89
2022-10-11T11:37:47.372Z,56.10
2022-10-11T11:40:55.811Z,56.03
2022-10-11T11:44:15.822Z,55.29
2022-10-11T11:47:19.122Z,55.99
2022-10-11T11:50:27.927Z,55.57
2022-10-11T11:53:50.176Z,55.23
2022-10-11T11:57:08.020Z,54.62
2022-10-11T12:00:20.516Z,55.33
2022-10-11T12:03:47.056Z,55.55
2022-10-11T12:07:17.759Z,55.52
2022-10-11T12:10:32.515Z,55.53
2022-10-11T12:13:38.343Z,55.11
2022-10-11T12:17:07.090Z,55.01
2022-10-11T12:20:24.136Z,54.91
2022-10-11T12:23:30.085Z,54.50
2022-10-11T12:26:35.613Z,54.84
2022-10-11T12:29:45.731Z,54.72
2022-10-11T12:32:50.197Z,54.17
2022-10-11T12:35:52.965Z,54.34
2022-10-11T12:39:20.537Z,54.95
2022-10-11T12:42:33.141Z,54.41
2022-10-11T12:45:35.785Z,53.94
2022-10-11T12:48:48.451Z,54.10
2022-10-11T12:51:58.037Z,54.39
2022-10-11T12:55:12.860Z,53.44
2022-10-11T12:58:21.587Z,53.55
2022-10-11T13:01:26.410Z,52.89
2022-10-11T13:04:31.701Z,53.51
2022-10-11T13:07:35.560Z,53.34
2022-10-11T13:10:45.334Z,52.24
2022-10-11T13:13:55.159Z,52.75
2022-10-11T13:17:00.301Z,52.22
2022-10-11T13:20:24.207Z,52.01
2022-10-11T13:23:36.072Z,52.37
2022-10-11T13:26:38.931Z,52.41
2022-10-11T13:29:46.480Z,52.43
2022-10-11T13:32:49.741Z,52.66
2022-10-11T13:35:52.861Z,53.56
2022-10-11T13:38:58.954Z,53.31
2022-10-11T13:42:07.248Z,52.66
2022-10-11T13:45:13.861Z,53.40
2022-10-11T13:48:16.821Z,54.48
2022-10-11T13:51:35.312Z,55.28
2022-10-11T13:54:53.183Z,56.58
2022-10-11T13:57:57.445Z,57.68
2022-10-11T14:01:16.791Z,58.08
2022-10-11T14:04:19.591Z,57.20
2022-10-11T14:07:28.547Z,57.31
2022-10-11T14:10:31.587Z,57.32
2022-10-11T14:13:52.261Z,58.89
2022-10-11T14:17:05.224Z,58.13
2022-10-11T14:20:16.020Z,58.42
2022-10-11T14:23:18.811Z,57.87
2022-10-11T14:26:22.145Z,58.21
2022-10-11T14:29:36.012Z,57.22
2022-10-11T14:32:42.235Z,56.13
2022-10-11T14:35:45.063Z,55.16
2022-10-11T14:38:47.544Z,56.32
2022-10-11T14:41:51.469Z,55.99
2022-10-11T14:44:53.999Z,56.48
2022-10-11T14:47:56.842Z,56.75
2022-10-11T14:51:01.434Z,55.71
2022-10-11T14:54:04.234Z,56.57
2022-10-11T14:57:06.737Z,56.21
2022-10-11T15:00:29.097Z,57.45
2022-10-11T15:03:31.536Z,58.15
2022-10-11T15:06:37.521Z,58.65
2022-10-11T15:09:40.088Z,59.12
2022-10-11T15:12:43.121Z,59.72
2022-10-11T15:15:45.981Z,59.84
2022-10-11T15:18:52.708Z,60.29
2022-10-11T15:21:55.289Z,61.04
2022-10-11T15:25:00.252Z,61.29
2022-10-11T15:28:02.723Z,61.99
2022-10-11T15:31:14.322Z,62.20
2022-10-11T15:34:17.189Z,62.44
2022-10-11T15:37:20.084Z,63.07
2022-10-11T15:40:25.432Z,63.43
2022-10-11T15:43:28.325Z,63.69
2022-10-11T15:46:30.824Z,64.28
2022-10-11T15:49:33.718Z,64.75
2022-10-11T15:52:36.250Z,64.94
2022-10-11T15:55:42.562Z,65.40
2022-10-11T15:58:45.409Z,65.87
2022-10-11T16:01:48.693Z,66.22
2022-10-11T16:04:53.288Z,66.72
2022-10-11T16:07:55.863Z,67.14
2022-10-11T16:10:59.731Z,67.89
2022-10-11T16:14:02.536Z,68.16
2022-10-11T16:17:05.704Z,68.88
2022-10-11T16:20:08.695Z,68.95
2022-10-11T16:23:12.048Z,69.04
2022-10-11T16:26:16.332Z,69.32
2022-10-11T16:29:19.099Z,69.48
2022-10-11T16:32:22.148Z,69.81
2022-10-11T16:35:26.966Z,70.24
2022-10-11T16:38:32.788Z,70.22
2022-10-11T16:41:35.656Z,70.67
2022-10-11T16:44:39.336Z,70.67
2022-10-11T16:47:43.404Z,70.59
2022-10-11T16:50:45.934Z,70.88
2022-10-11T16:53:48.883Z,71.21
2022-10-11T16:56:51.450Z,71.43
2022-10-11T16:59:54.760Z,71.79
2022-10-11T17:02:57.347Z,71.99
2022-10-11T17:06:00.193Z,72.43
2022-10-11T17:09:03.402Z,72.61
2022-10-11T17:12:06.915Z,72.86
2022-10-11T17:15:11.048Z,72.98
2022-10-11T17:18:14.185Z,73.45
2022-10-11T17:21:18.057Z,73.81
2022-10-11T17:24:20.927Z,74.07
2022-10-11T17:27:23.472Z,74.39
2022-10-11T17:30:26.301Z,74.71
2022-10-11T17:33:29.055Z,74.47
2022-10-11T17:36:36.271Z,74.53
2022-10-11T17:39:39.025Z,74.95
2022-10-11T17:42:41.849Z,75.16
2022-10-11T17:45:54.487Z,75.23
2022-10-11T17:48:58.708Z,75.53
2022-10-11T17:52:01.234Z,75.65
2022-10-11T17:55:04.532Z,75.87
2022-10-11T17:58:07.063Z,76.36
2022-10-11T18:01:13.541Z,76.25
2022-10-11T18:04:17.283Z,76.42
2022-10-11T18:07:19.756Z,76.65
2022-10-11T18:10:23.130Z,76.74
2022-10-11T18:13:25.678Z,77.04
2022-10-11T18:16:29.902Z,77.83
2022-10-11T18:19:32.585Z,77.35
2022-10-11T18:22:35.542Z,77.56
2022-10-11T18:25:38.447Z,77.23
2022-10-11T18:28:41.718Z,76.84
2022-10-11T18:31:44.562Z,76.72
2022-10-11T18:34:51.414Z,76.66
2022-10-11T18:38:00.027Z,76.62
2022-10-11T18:41:09.462Z,76.50
2022-10-11T18:44:14.395Z,76.64
2022-10-11T18:47:17.837Z,76.67
2022-10-11T18:50:23.679Z,76.42
2022-10-11T18:53:26.504Z,76.70
2022-10-11T18:56:30.241Z,76.78
2022-10-11T18:59:34.743Z,76.83
2022-10-11T19:02:37.373Z,76.96
2022-10-11T19:05:43.061Z,76.92
2022-10-11T19:08:54.475Z,76.99
2022-10-11T19:12:04.830Z,77.09
2022-10-11T19:15:07.915Z,77.12
2022-10-11T19:18:13.474Z,77.21
2022-10-11T19:21:17.865Z,77.48
2022-10-11T19:24:22.407Z,77.60
2022-10-11T19:27:27.390Z,77.69
2022-10-11T19:30:39.642Z,77.67
2022-10-11T19:33:48.037Z,77.50
2022-10-11T19:36:52.828Z,77.47
2022-10-11T19:39:55.501Z,77.63
2022-10-11T19:42:58.573Z,77.88
2022-10-11T19:46:09.517Z,78.31
2022-10-11T19:49:14.098Z,78.33
2022-10-11T19:52:16.712Z,78.51
2022-10-11T19:55:22.419Z,78.65
2022-10-11T19:58:27.599Z,78.70
2022-10-11T20:01:31.255Z,78.82
2022-10-11T20:04:51.722Z,79.03
2022-10-11T20:07:56.695Z,79.20
2022-10-11T20:11:04.184Z,79.43
2022-10-11T20:14:09.883Z,79.52
2022-10-11T20:17:13.246Z,79.96
2022-10-11T20:20:17.621Z,79.99
2022-10-11T20:23:25.196Z,80.04
2022-10-11T20:26:30.685Z,80.30
2022-10-11T20:29:33.439Z,80.61
2022-10-11T20:32:36.580Z,80.56
2022-10-11T20:35:39.551Z,81.92
2022-10-11T20:38:43.575Z,82.61
2022-10-11T20:41:46.453Z,82.19
2022-10-11T20:44:49.456Z,82.07
2022-10-11T20:47:53.774Z,81.91
2022-10-11T20:50:56.444Z,81.77
2022-10-11T20:54:02.353Z,81.62
2022-10-11T20:57:04.911Z,81.49
2022-10-11T21:00:08.536Z,81.78
2022-10-11T21:03:13.233Z,81.69
2022-10-11T21:06:16.259Z,81.68
2022-10-11T21:09:21.888Z,81.75
2022-10-11T21:12:24.784Z,81.89
2022-10-11T21:15:29.353Z,82.01
2022-10-11T21:18:32.472Z,81.87
2022-10-11T21:21:35.098Z,81.69
2022-10-11T21:24:38.750Z,81.72
2022-10-11T21:27:41.189Z,81.69
2022-10-11T21:30:44.057Z,81.70
2022-10-11T21:33:46.874Z,81.52
2022-10-11T21:36:49.662Z,81.55
2022-10-11T21:39:52.174Z,81.44
2022-10-11T21:42:54.957Z,81.47
2022-10-11T21:45:57.456Z,81.35
2022-10-11T21:49:03.076Z,81.45
2022-10-11T21:52:05.870Z,81.73
2022-10-11T21:55:08.787Z,81.75
2022-10-11T21:58:11.310Z,82.43
2022-10-11T22:01:14.733Z,82.18
2022-10-11T22:04:17.622Z,82.26
2022-10-11T22:07:20.163Z,82.29
2022-10-11T22:10:22.990Z,82.24
2022-10-11T22:13:26.216Z,82.06
2022-10-11T22:16:29.089Z,82.12
2022-10-11T22:19:31.999Z,82.34
2022-10-11T22:22:35.010Z,82.77
2022-10-11T22:25:38.981Z,83.46
2022-10-11T22:28:42.557Z,83.34
2022-10-11T22:31:45.061Z,82.86
2022-10-11T22:34:47.825Z,82.80
2022-10-11T22:37:50.741Z,82.68
2022-10-11T22:40:53.730Z,82.58
2022-10-11T22:43:56.482Z,83.37
2022-10-11T22:46:59.341Z,83.08
2022-10-11T22:50:02.083Z,82.88
2022-10-11T22:53:06.126Z,82.76
2022-10-11T22:56:09.356Z,82.74
2022-10-11T22:59:12.135Z,82.59
2022-10-11T23:02:14.751Z,82.29
2022-10-11T23:05:17.619Z,82.25
2022-10-11T23:08:20.234Z,82.18
2022-10-11T23:11:23.294Z,81.97
2022-10-11T23:14:28.497Z,82.13
2022-10-11T23:17:31.663Z,82.13
2022-10-11T23:20:34.305Z,82.30
2022-10-11T23:23:39.598Z,82.22
2022-10-11T23:26:42.126Z,82.19
2022-10-11T23:29:45.011Z,82.21
2022-10-11T23:32:49.577Z,82.04
2022-10-11T23:35:52.419Z,82.06
2022-10-11T23:38:57.203Z,82.32
2022-10-11T23:41:59.922Z,82.30
2022-10-11T23:45:02.368Z,82.20
2022-10-11T23:48:05.271Z,82.11
2022-10-11T23:51:08.148Z,81.98
2022-10-11T23:54:11.064Z,82.11
2022-10-11T23:57:13.581Z,82.18
